createdAt,value
2023-04-02T00:01:01.655Z,97.24
2023-04-02T00:03:59.581Z,97.38
2023-04-02T00:06:30.073Z,97.81
2023-04-02T00:09:04.685Z,97.05
2023-04-02T00:11:37.500Z,97.04
2023-04-02T00:14:13.350Z,96.81
2023-04-02T00:16:39.944Z,97.03
2023-04-02T00:19:12.974Z,96.68
2023-04-02T00:21:41.623Z,96.39
2023-04-02T00:24:15.568Z,95.99
2023-04-02T00:26:48.984Z,96.14
2023-04-02T00:29:17.283Z,95.64
2023-04-02T00:31:50.308Z,95.96
2023-04-02T00:34:33.262Z,95.87
2023-04-02T00:37:00.112Z,95.96
2023-04-02T00:39:30.888Z,96.14
2023-04-02T00:42:04.858Z,96.46
2023-04-02T00:44:42.771Z,96.61
2023-04-02T00:47:32.636Z,96.53
2023-04-02T00:50:23.493Z,97.22
2023-04-02T00:52:51.981Z,97.28
2023-04-02T00:55:24.807Z,96.73
2023-04-02T00:57:52.286Z,95.49
2023-04-02T01:00:22.532Z,95.11
2023-04-02T01:03:19.004Z,94.95
2023-04-02T01:06:10.819Z,94.51
2023-04-02T01:09:15.280Z,94.67
2023-04-02T01:11:41.625Z,95.45
2023-04-02T01:14:33.081Z,94.82
2023-04-02T01:17:30.447Z,95.35
2023-04-02T01:20:00.985Z,96.40
2023-04-02T01:22:48.036Z,95.40
2023-04-02T01:25:21.015Z,96.21
2023-04-02T01:28:05.998Z,96.39
2023-04-02T01:30:36.057Z,96.53
2023-04-02T01:33:03.904Z,96.44
2023-04-02T01:35:36.468Z,95.63
2023-04-02T01:38:11.894Z,95.40
2023-04-02T01:40:45.686Z,95.00
2023-04-02T01:43:35.539Z,94.71
2023-04-02T01:46:24.586Z,94.56
2023-04-02T01:48:52.922Z,95.11
2023-04-02T01:51:53.776Z,95.25
2023-04-02T01:54:21.523Z,95.57
2023-04-02T01:56:48.723Z,95.60
2023-04-02T01:59:22.413Z,96.25
2023-04-02T02:02:04.393Z,97.05
2023-04-02T02:07:18.220Z,98.92
